Time;durP1;ratioP1;P1;durP2;ratioP2;P2;SDS_P1;SDS_P2;PMS_P1;PMS_P2;Temp;Humidity;BMP_temperature;BMP_pressure;BME280_temperature;BME280_humidity;BME280_pressure;Samples;Min_cycle;Max_cycle;Signal;HPM_P1;HPM_P2
2023/09/26 00:00:14;;;;;;;38.20;36.35;;;;;;;14.75;100.00;101526.13;5058719;28;20438;-72
2023/09/26 00:02:41;;;;;;;39.28;37.38;;;;;;;14.52;100.00;101529.31;5059238;28;20128;-73
2023/09/26 00:05:09;;;;;;;53.00;50.60;;;;;;;14.62;100.00;101537.72;5058713;28;20044;-73
2023/09/26 00:07:37;;;;;;;39.50;37.60;;;;;;;14.46;100.00;101532.81;5058879;28;20048;-73
2023/09/26 00:10:06;;;;;;;50.67;48.00;;;;;;;14.53;100.00;101535.50;5056777;28;20053;-72
2023/09/26 00:12:34;;;;;;;49.00;46.35;;;;;;;14.40;100.00;101530.97;5068660;28;20056;-72
2023/09/26 00:15:01;;;;;;;47.20;44.60;;;;;;;14.35;100.00;101533.47;5045741;28;20040;-72
2023/09/26 00:17:28;;;;;;;35.80;33.53;;;;;;;13.95;100.00;101533.59;5057808;28;20045;-73
2023/09/26 00:19:55;;;;;;;37.55;35.25;;;;;;;13.99;100.00;101532.13;5064491;28;20040;-72
2023/09/26 00:22:24;;;;;;;40.30;37.90;;;;;;;14.26;100.00;101529.41;5063751;28;20136;-73
2023/09/26 00:24:53;;;;;;;37.50;35.20;;;;;;;14.34;100.00;101523.81;5042255;28;20050;-72
2023/09/26 00:27:22;;;;;;;34.80;32.60;;;;;;;14.15;100.00;101521.00;5028527;28;20053;-72
2023/09/26 00:29:48;;;;;;;37.80;35.42;;;;;;;14.25;100.00;101520.56;5029333;28;20049;-72
2023/09/26 00:32:16;;;;;;;31.00;28.90;;;;;;;14.21;100.00;101522.81;5031747;28;20045;-72
2023/09/26 00:34:43;;;;;;;35.92;34.03;;;;;;;14.07;100.00;101515.91;5026743;28;20057;-72
2023/09/26 00:37:12;;;;;;;35.60;33.80;;;;;;;14.04;100.00;101527.00;5031383;28;20107;-72
2023/09/26 00:39:39;;;;;;;45.00;42.60;;;;;;;13.84;100.00;101520.88;5028531;28;20050;-72
2023/09/26 00:42:06;;;;;;;43.45;41.08;;;;;;;13.86;100.00;101516.97;5031281;28;20056;-72
2023/09/26 00:44:34;;;;;;;39.15;36.75;;;;;;;13.86;100.00;101513.47;5020256;28;20133;-72
2023/09/26 00:47:01;;;;;;;33.38;31.23;;;;;;;13.61;100.00;101516.75;5030990;28;20045;-72
2023/09/26 00:49:29;;;;;;;22.73;21.15;;;;;;;13.81;100.00;101514.09;5030694;28;20050;-72
2023/09/26 00:51:59;;;;;;;24.10;22.50;;;;;;;12.88;100.00;101515.84;5031007;28;20132;-72
2023/09/26 00:54:26;;;;;;;33.80;31.88;;;;;;;13.78;100.00;101509.16;5031151;28;20099;-72
2023/09/26 00:56:54;;;;;;;40.92;38.83;;;;;;;13.67;100.00;101515.94;5028832;28;20053;-73
2023/09/26 00:59:22;;;;;;;22.13;20.70;;;;;;;13.50;100.00;101510.22;5030845;28;20046;-72
2023/09/26 01:01:55;;;;;;;32.67;31.02;;;;;;;13.62;100.00;101515.75;5028596;28;20446;-73
2023/09/26 01:04:23;;;;;;;30.55;28.85;;;;;;;13.51;100.00;101511.03;5029140;28;20064;-73
2023/09/26 01:06:50;;;;;;;38.78;36.97;;;;;;;13.85;100.00;101514.50;5029506;28;20045;-73
2023/09/26 01:09:17;;;;;;;30.02;28.52;;;;;;;13.80;100.00;101516.94;5031590;28;20041;-73
2023/09/26 01:11:44;;;;;;;28.30;26.77;;;;;;;13.84;100.00;101523.53;5030895;28;20404;-72
2023/09/26 01:14:11;;;;;;;34.85;33.05;;;;;;;13.85;100.00;101528.66;5029533;28;20059;-72
2023/09/26 01:16:38;;;;;;;32.90;31.10;;;;;;;13.41;100.00;101522.13;5031263;28;20045;-73
2023/09/26 01:19:08;;;;;;;34.95;33.05;;;;;;;13.20;100.00;101528.44;5030315;28;20049;-72
2023/09/26 01:21:36;;;;;;;31.63;29.92;;;;;;;13.45;100.00;101538.53;5030345;28;20057;-73
2023/09/26 01:24:05;;;;;;;36.03;34.05;;;;;;;13.43;100.00;101528.06;5030322;28;20056;-72
2023/09/26 01:26:37;;;;;;;35.97;34.17;;;;;;;13.45;100.00;101528.69;5025456;28;20060;-73
2023/09/26 01:29:12;;;;;;;35.00;33.28;;;;;;;13.47;100.00;101528.50;5027169;28;20049;-73
2023/09/26 01:31:39;;;;;;;31.08;29.48;;;;;;;13.16;100.00;101535.22;5021065;28;20038;-72
2023/09/26 01:34:06;;;;;;;33.72;32.03;;;;;;;13.07;100.00;101539.06;5029987;28;20060;-72
2023/09/26 01:36:33;;;;;;;39.42;37.58;;;;;;;13.44;100.00;101532.38;5025043;28;20049;-72
2023/09/26 01:39:00;;;;;;;35.80;34.00;;;;;;;13.54;100.00;101539.16;5019072;28;20045;-72
2023/09/26 01:41:35;;;;;;;34.88;33.17;;;;;;;13.03;100.00;101545.84;5030152;28;20056;-72
2023/09/26 01:44:02;;;;;;;37.90;36.10;;;;;;;13.14;100.00;101541.78;5030624;28;20656;-72
2023/09/26 01:46:29;;;;;;;29.77;28.27;;;;;;;13.24;100.00;101537.66;5030540;28;20045;-73
2023/09/26 01:48:56;;;;;;;31.27;29.67;;;;;;;13.35;100.00;101546.13;5030417;28;20046;-73
2023/09/26 01:51:23;;;;;;;35.17;33.40;;;;;;;13.18;100.00;101527.00;5030206;28;20061;-74
2023/09/26 01:53:50;;;;;;;36.38;34.58;;;;;;;13.05;100.00;101552.63;5023185;28;20037;-73
2023/09/26 01:56:17;;;;;;;30.65;28.95;;;;;;;12.69;100.00;101552.09;5030040;28;20049;-72
2023/09/26 01:58:45;;;;;;;30.52;28.83;;;;;;;12.61;100.00;101545.91;5030469;28;20434;-73
2023/09/26 02:01:12;;;;;;;40.85;39.15;;;;;;;13.07;100.00;101547.91;5023045;28;20064;-73
2023/09/26 02:03:39;;;;;;;37.92;36.22;;;;;;;13.26;100.00;101540.19;5027331;28;20057;-72
2023/09/26 02:06:06;;;;;;;42.65;40.85;;;;;;;13.02;100.00;101554.88;5025015;28;20045;-73
2023/09/26 02:08:33;;;;;;;47.53;45.63;;;;;;;13.15;100.00;101546.06;5030444;28;20045;-73
2023/09/26 02:10:59;;;;;;;49.17;47.17;;;;;;;13.13;100.00;101554.28;5028529;28;20049;-74
2023/09/26 02:13:26;;;;;;;31.98;30.67;;;;;;;12.79;100.00;101552.53;5030451;28;20054;-73
2023/09/26 02:15:55;;;;;;;32.80;31.20;;;;;;;12.52;100.00;101552.44;5030251;28;20533;-74
2023/09/26 02:18:22;;;;;;;42.20;40.30;;;;;;;12.79;100.00;101560.53;5021719;28;20064;-73
2023/09/26 02:20:49;;;;;;;38.30;36.50;;;;;;;12.67;100.00;101567.47;5029641;28;20058;-73
2023/09/26 02:23:15;;;;;;;34.08;32.47;;;;;;;12.75;100.00;101553.97;5030279;28;20057;-73
2023/09/26 02:25:48;;;;;;;35.42;33.80;;;;;;;12.82;100.00;101566.28;5048594;28;20049;-74
2023/09/26 02:28:15;;;;;;;40.05;38.28;;;;;;;12.82;100.00;101563.63;5031111;28;20064;-73
2023/09/26 02:30:42;;;;;;;36.55;34.85;;;;;;;12.85;100.00;101562.41;5046839;28;20525;-73
2023/09/26 02:33:12;;;;;;;32.80;31.30;;;;;;;12.92;100.00;101565.94;5053220;28;20049;-73
2023/09/26 02:35:39;;;;;;;29.73;28.52;;;;;;;12.95;100.00;101560.19;5047314;28;20060;-72
2023/09/26 02:38:08;;;;;;;24.95;23.75;;;;;;;12.67;100.00;101565.63;5061966;28;20053;-72
2023/09/26 02:40:35;;;;;;;26.85;25.45;;;;;;;12.63;100.00;101563.56;5067469;28;20130;-72
2023/09/26 02:43:02;;;;;;;28.20;26.80;;;;;;;12.99;100.00;101568.59;5053683;28;20053;-72
2023/09/26 02:45:35;;;;;;;30.25;28.75;;;;;;;12.84;100.00;101574.91;5066112;28;20045;-72
2023/09/26 02:48:09;;;;;;;26.70;25.30;;;;;;;12.84;100.00;101576.75;5068262;28;20146;-71
2023/09/26 02:50:37;;;;;;;27.83;26.42;;;;;;;12.58;100.00;101578.28;5060501;28;20049;-72
2023/09/26 02:53:05;;;;;;;25.95;24.58;;;;;;;12.67;100.00;101578.94;5064220;28;20123;-72
2023/09/26 02:55:34;;;;;;;34.50;32.90;;;;;;;12.75;100.00;101581.44;5052875;28;20105;-72
2023/09/26 02:58:01;;;;;;;30.25;28.85;;;;;;;12.44;100.00;101583.78;5038550;28;20055;-74
2023/09/26 03:00:28;;;;;;;23.65;22.55;;;;;;;12.48;100.00;101583.16;5052655;28;20071;-75
2023/09/26 03:02:55;;;;;;;24.75;23.45;;;;;;;12.87;100.00;101579.03;5059672;28;20054;-75
2023/09/26 03:05:22;;;;;;;25.35;24.15;;;;;;;12.99;100.00;101576.59;5055638;28;20053;-76
2023/09/26 03:07:50;;;;;;;27.15;25.88;;;;;;;13.03;100.00;101578.66;5061137;28;20064;-75
2023/09/26 03:10:17;;;;;;;27.30;26.10;;;;;;;12.90;100.00;101577.81;5063748;28;20061;-76
2023/09/26 03:12:46;;;;;;;29.90;28.60;;;;;;;12.98;100.00;101578.47;5066585;28;20052;-75
2023/09/26 03:15:13;;;;;;;33.58;32.17;;;;;;;13.00;100.00;101584.38;5064710;28;20057;-75
2023/09/26 03:17:40;;;;;;;34.38;32.97;;;;;;;13.00;100.00;101576.38;5067545;28;20056;-74
2023/09/26 03:20:10;;;;;;;28.52;27.23;;;;;;;13.00;100.00;101580.91;5052600;28;20071;-75
2023/09/26 03:22:38;;;;;;;32.53;31.13;;;;;;;12.70;100.00;101581.22;5046225;28;20045;-74
2023/09/26 03:25:18;;;;;;;26.90;25.67;;;;;;;12.72;100.00;101589.03;5041787;28;20081;-75
2023/09/26 03:27:48;;;;;;;27.63;26.52;;;;;;;12.68;100.00;101587.75;5025168;28;20052;-75
2023/09/26 03:30:16;;;;;;;26.25;25.05;;;;;;;12.61;100.00;101585.06;5028006;28;20060;-75
2023/09/26 03:32:56;;;;;;;25.90;24.60;;;;;;;12.41;100.00;101584.97;5022906;28;20698;-72
2023/09/26 03:35:23;;;;;;;27.25;25.95;;;;;;;12.72;100.00;101586.34;5027634;28;20042;-73
2023/09/26 03:37:52;;;;;;;31.27;29.88;;;;;;;12.50;100.00;101589.13;5029753;28;20084;-74
2023/09/26 03:40:20;;;;;;;31.80;30.50;;;;;;;12.56;100.00;101585.66;5032295;28;20049;-73
2023/09/26 03:42:47;;;;;;;27.63;26.33;;;;;;;12.64;100.00;101586.50;5032173;28;20053;-73
2023/09/26 03:45:14;;;;;;;31.85;30.40;;;;;;;12.34;100.00;101592.09;5031767;28;20490;-73
2023/09/26 03:47:41;;;;;;;27.77;26.58;;;;;;;12.47;100.00;101588.72;5021498;28;20100;-73
2023/09/26 03:50:08;;;;;;;28.88;27.52;;;;;;;12.71;100.00;101592.69;5031762;28;20060;-73
2023/09/26 03:52:35;;;;;;;24.50;23.30;;;;;;;12.67;100.00;101586.94;5029876;28;20291;-73
2023/09/26 03:55:03;;;;;;;24.40;23.40;;;;;;;12.46;100.00;101595.03;5028390;28;20050;-73
2023/09/26 03:57:33;;;;;;;26.10;24.52;;;;;;;12.16;100.00;101589.94;5030319;28;20056;-73
2023/09/26 04:00:00;;;;;;;20.67;19.58;;;;;;;12.40;100.00;101593.16;5027440;28;20056;-72
2023/09/26 04:02:26;;;;;;;21.75;20.55;;;;;;;12.50;100.00;101590.97;5028678;28;20056;-72
2023/09/26 04:04:54;;;;;;;21.00;19.80;;;;;;;12.83;100.00;101583.94;5026345;28;20056;-72
2023/09/26 04:07:22;;;;;;;24.55;23.13;;;;;;;12.82;100.00;101584.94;5024953;28;20041;-72
2023/09/26 04:09:49;;;;;;;20.05;19.00;;;;;;;13.38;100.00;101589.25;5029320;28;20072;-72
2023/09/26 04:12:15;;;;;;;21.10;19.90;;;;;;;13.38;100.00;101583.91;5029893;28;20530;-72
2023/09/26 04:14:44;;;;;;;20.98;19.40;;;;;;;13.14;100.00;101592.44;5029595;28;20053;-72
2023/09/26 04:17:10;;;;;;;19.58;18.48;;;;;;;13.20;100.00;101600.47;5030406;28;20057;-72
2023/09/26 04:19:37;;;;;;;19.73;18.35;;;;;;;13.51;100.00;101585.75;5027816;28;20051;-72
2023/09/26 04:22:05;;;;;;;30.65;19.55;;;;;;;13.18;100.00;101585.69;5030387;28;20097;-72
2023/09/26 04:24:32;;;;;;;18.33;17.17;;;;;;;13.55;100.00;101583.50;5032598;28;20091;-71
2023/09/26 04:26:59;;;;;;;19.60;18.40;;;;;;;13.42;100.00;101593.13;5048097;28;20045;-72
2023/09/26 04:29:25;;;;;;;24.90;18.63;;;;;;;13.33;100.00;101590.88;5049606;28;20053;-72
2023/09/26 04:31:53;;;;;;;19.77;18.58;;;;;;;13.60;100.00;101592.53;5049522;28;20045;-72
2023/09/26 04:34:22;;;;;;;18.77;17.67;;;;;;;13.50;100.00;101586.78;5037773;28;20421;-72
2023/09/26 04:36:49;;;;;;;20.45;19.15;;;;;;;13.81;100.00;101593.38;5049281;28;20048;-71
2023/09/26 04:39:16;;;;;;;18.65;17.45;;;;;;;13.19;100.00;101590.81;5043094;28;20049;-72
2023/09/26 04:41:45;;;;;;;19.40;17.77;;;;;;;13.86;100.00;101577.56;5047558;28;20147;-72
2023/09/26 04:44:12;;;;;;;18.00;16.90;;;;;;;14.39;100.00;101583.63;5047581;28;20048;-72
2023/09/26 04:46:39;;;;;;;39.75;17.50;;;;;;;14.41;100.00;101588.75;5049510;28;20053;-72
2023/09/26 04:49:07;;;;;;;20.67;19.10;;;;;;;14.40;100.00;101590.63;5049611;28;20041;-72
2023/09/26 04:51:34;;;;;;;18.95;17.85;;;;;;;14.65;100.00;101597.97;5047041;28;20049;-72
2023/09/26 04:54:02;;;;;;;21.08;19.58;;;;;;;14.79;100.00;101591.50;5046865;28;20525;-72
2023/09/26 04:56:28;;;;;;;21.33;19.83;;;;;;;14.72;100.00;101597.94;5040927;28;20064;-72
2023/09/26 04:58:55;;;;;;;21.40;20.10;;;;;;;14.79;100.00;101594.19;5046151;28;20056;-72
2023/09/26 05:01:24;;;;;;;21.90;20.60;;;;;;;14.80;100.00;101598.53;5041370;28;20045;-73
2023/09/26 05:03:54;;;;;;;21.20;19.90;;;;;;;15.07;100.00;101598.41;5048857;28;20053;-72
2023/09/26 05:06:23;;;;;;;21.33;20.02;;;;;;;15.31;100.00;101608.34;5042881;28;20049;-72
2023/09/26 05:08:50;;;;;;;22.35;21.08;;;;;;;15.71;100.00;101605.41;5046649;28;20052;-73
2023/09/26 05:11:17;;;;;;;25.38;23.58;;;;;;;15.91;100.00;101609.75;5049019;28;20045;-72
2023/09/26 05:13:44;;;;;;;23.27;21.98;;;;;;;17.27;100.00;101607.81;5046550;28;20048;-73
2023/09/26 05:16:11;;;;;;;23.55;22.00;;;;;;;17.46;100.00;101612.09;5037800;28;20052;-72
2023/09/26 05:18:38;;;;;;;23.63;22.23;;;;;;;17.82;100.00;101612.97;5047309;28;20448;-72
2023/09/26 05:21:06;;;;;;;24.05;22.38;;;;;;;18.96;100.00;101610.63;5045618;28;20135;-72
2023/09/26 05:23:35;;;;;;;21.40;20.10;;;;;;;21.24;100.00;101620.69;5046036;28;20048;-72
2023/09/26 05:26:06;;;;;;;22.35;20.63;;;;;;;21.10;100.00;101612.19;5029204;28;20041;-73
2023/09/26 05:28:33;;;;;;;21.00;19.50;;;;;;;22.26;100.00;101599.09;5025820;28;20435;-73
2023/09/26 05:31:00;;;;;;;18.50;17.20;;;;;;;22.01;100.00;101605.13;5025803;28;20442;-73
2023/09/26 05:33:26;;;;;;;19.77;18.38;;;;;;;22.28;100.00;101610.47;5029160;28;20049;-72
2023/09/26 05:35:53;;;;;;;21.55;20.25;;;;;;;23.05;100.00;101596.13;5028160;28;20442;-73
2023/09/26 05:38:20;;;;;;;23.60;22.20;;;;;;;23.85;100.00;101602.97;5020354;28;20049;-73
2023/09/26 05:40:49;;;;;;;19.80;18.50;;;;;;;20.77;100.00;101605.91;5025724;28;20053;-73
2023/09/26 05:43:16;;;;;;;20.58;19.27;;;;;;;19.98;100.00;101606.19;5026114;28;20495;-73
2023/09/26 05:45:43;;;;;;;20.38;18.98;;;;;;;19.31;100.00;101615.03;5026885;28;20057;-72
2023/09/26 05:48:09;;;;;;;21.20;19.80;;;;;;;19.94;100.00;101615.84;5024991;28;20119;-72
2023/09/26 05:50:36;;;;;;;23.13;21.73;;;;;;;19.17;100.00;101625.28;5026969;28;20045;-73
2023/09/26 05:53:03;;;;;;;24.05;22.40;;;;;;;20.18;100.00;101618.31;5021884;28;20518;-73
2023/09/26 05:55:30;;;;;;;23.33;22.02;;;;;;;19.34;100.00;101621.81;5026559;28;20053;-73
2023/09/26 05:57:59;;;;;;;23.60;22.30;;;;;;;19.13;100.00;101632.22;5026407;28;20073;-73
2023/09/26 06:00:25;;;;;;;23.65;22.25;;;;;;;20.20;100.00;101627.78;5027474;28;20052;-72
2023/09/26 06:02:53;;;;;;;21.05;19.75;;;;;;;20.25;100.00;101627.06;5026869;28;20052;-73
2023/09/26 06:05:22;;;;;;;23.33;21.83;;;;;;;20.58;100.00;101623.50;5028862;28;20581;-73
2023/09/26 06:07:51;;;;;;;24.33;23.02;;;;;;;20.26;100.00;101628.69;5022942;28;20055;-73
2023/09/26 06:10:19;;;;;;;26.80;24.75;;;;;;;19.54;100.00;101630.25;5026898;28;20060;-73
2023/09/26 06:12:45;;;;;;;23.33;22.02;;;;;;;20.56;100.00;101621.03;5031542;28;20511;-74
2023/09/26 06:15:14;;;;;;;24.88;23.48;;;;;;;20.59;100.00;101622.41;5030995;28;20045;-73
2023/09/26 06:17:43;;;;;;;23.10;21.80;;;;;;;19.98;100.00;101614.28;5031025;28;20056;-73
2023/09/26 06:20:12;;;;;;;23.95;22.65;;;;;;;20.42;100.00;101624.31;5030708;28;20061;-73
2023/09/26 06:22:38;;;;;;;22.65;21.27;;;;;;;20.58;100.00;101624.31;5031381;28;20558;-72
2023/09/26 06:25:06;;;;;;;22.77;21.48;;;;;;;21.07;100.00;101631.63;5031571;28;20121;-73
2023/09/26 06:27:35;;;;;;;24.23;22.73;;;;;;;20.84;100.00;101630.00;5027288;28;20053;-72
2023/09/26 06:30:04;;;;;;;22.77;21.40;;;;;;;20.81;100.00;101625.09;5030672;28;20045;-73
2023/09/26 06:32:32;;;;;;;21.02;19.83;;;;;;;20.85;100.00;101628.94;5031215;28;20431;-73
2023/09/26 06:35:00;;;;;;;21.65;20.35;;;;;;;21.13;100.00;101632.50;5031206;28;20519;-72
2023/09/26 06:37:27;;;;;;;21.38;20.17;;;;;;;21.16;100.00;101634.69;5032019;28;20446;-73
2023/09/26 06:39:58;;;;;;;21.33;20.13;;;;;;;21.58;100.00;101632.13;5031431;28;20517;-73
2023/09/26 06:42:25;;;;;;;21.35;20.05;;;;;;;21.67;100.00;101625.19;5028390;28;20048;-72
2023/09/26 06:44:52;;;;;;;22.10;20.65;;;;;;;21.70;100.00;101621.97;5027969;28;20391;-72
2023/09/26 06:47:19;;;;;;;23.67;22.27;;;;;;;21.87;100.00;101635.31;5031184;28;20225;-72
2023/09/26 06:49:47;;;;;;;22.98;21.67;;;;;;;21.61;100.00;101630.81;5028388;28;20053;-72
2023/09/26 06:52:14;;;;;;;22.88;21.48;;;;;;;21.77;100.00;101629.84;5029431;28;20050;-72
2023/09/26 06:54:41;;;;;;;23.70;22.20;;;;;;;22.41;100.00;101623.50;5031365;28;20064;-72
2023/09/26 06:57:09;;;;;;;23.30;21.90;;;;;;;22.96;100.00;101627.53;5032090;28;20049;-73
2023/09/26 06:59:36;;;;;;;21.15;19.85;;;;;;;22.40;100.00;101633.53;5028637;28;20053;-73
2023/09/26 07:02:03;;;;;;;22.80;21.40;;;;;;;22.14;100.00;101631.72;5027881;28;20050;-73
2023/09/26 07:04:30;;;;;;;22.80;21.42;;;;;;;22.73;100.00;101620.69;5029774;28;20046;-73
2023/09/26 07:07:00;;;;;;;22.70;21.30;;;;;;;22.35;100.00;101636.19;5022567;28;20060;-72
2023/09/26 07:09:27;;;;;;;20.60;19.30;;;;;;;22.20;100.00;101635.31;5028241;28;20050;-72
2023/09/26 07:11:54;;;;;;;21.40;20.00;;;;;;;22.51;100.00;101637.13;5028534;28;20057;-72
2023/09/26 07:14:21;;;;;;;22.70;21.30;;;;;;;22.44;100.00;101625.69;5027633;28;20054;-73
2023/09/26 07:16:48;;;;;;;20.13;18.85;;;;;;;22.99;100.00;101632.41;5029184;28;20076;-72
2023/09/26 07:19:15;;;;;;;22.10;20.60;;;;;;;23.05;100.00;101627.84;5029664;28;20558;-73
2023/09/26 07:21:42;;;;;;;21.80;20.35;;;;;;;22.72;100.00;101629.06;5029018;28;20065;-73
2023/09/26 07:24:10;;;;;;;22.25;20.85;;;;;;;22.78;100.00;101626.09;5027867;28;20049;-73
2023/09/26 07:26:38;;;;;;;21.55;20.25;;;;;;;22.93;100.00;101636.16;5026701;28;20045;-73
2023/09/26 07:29:05;;;;;;;22.45;21.05;;;;;;;23.53;100.00;101621.13;5028189;28;20084;-73
2023/09/26 07:31:32;;;;;;;20.95;19.55;;;;;;;24.29;100.00;101616.69;5028917;28;20511;-72
2023/09/26 07:33:59;;;;;;;21.70;20.30;;;;;;;23.77;100.00;101626.84;5026314;28;20045;-72
2023/09/26 07:36:26;;;;;;;22.50;21.00;;;;;;;23.56;100.00;101625.19;5028580;28;20135;-73
2023/09/26 07:38:53;;;;;;;26.95;21.08;;;;;;;24.36;100.00;101621.84;5027738;28;20068;-72
2023/09/26 07:41:21;;;;;;;22.73;21.33;;;;;;;24.24;100.00;101622.16;5030985;28;20048;-72
2023/09/26 07:43:48;;;;;;;23.10;21.60;;;;;;;24.98;100.00;101625.91;5019429;28;20041;-73
2023/09/26 07:46:15;;;;;;;22.67;21.27;;;;;;;25.29;100.00;101614.88;5023559;28;20495;-73
2023/09/26 07:48:42;;;;;;;22.10;20.67;;;;;;;25.34;100.00;101626.53;5027192;28;20076;-73
2023/09/26 07:51:10;;;;;;;22.10;20.80;;;;;;;25.80;100.00;101619.88;5029525;28;20053;-73
2023/09/26 07:53:38;;;;;;;22.60;21.20;;;;;;;25.74;100.00;101627.28;5030311;28;20046;-72
2023/09/26 07:56:05;;;;;;;21.67;20.27;;;;;;;25.82;100.00;101623.19;5030857;28;20053;-73
2023/09/26 07:58:33;;;;;;;23.00;21.50;;;;;;;25.64;100.00;101618.41;5029387;28;20515;-73
2023/09/26 08:01:06;;;;;;;22.17;20.75;;;;;;;25.54;100.00;101625.56;5026115;28;20435;-73
2023/09/26 08:03:33;;;;;;;23.27;21.70;;;;;;;26.22;100.00;101629.28;5023103;28;20041;-74
2023/09/26 08:06:00;;;;;;;33.20;22.77;;;;;;;26.03;100.00;101629.22;5024907;28;20049;-73
2023/09/26 08:08:28;;;;;;;23.48;21.98;;;;;;;26.07;100.00;101626.75;5021826;28;20069;-73
2023/09/26 08:10:55;;;;;;;25.02;23.42;;;;;;;25.92;100.00;101624.97;5029376;28;20093;-73
2023/09/26 08:13:22;;;;;;;24.00;22.50;;;;;;;26.56;100.00;101620.22;5027925;28;20503;-73
2023/09/26 08:15:50;;;;;;;25.75;23.60;;;;;;;26.32;100.00;101615.56;5029722;28;20133;-73
2023/09/26 08:18:17;;;;;;;23.63;22.23;;;;;;;26.89;100.00;101604.78;5029410;28;20057;-73
2023/09/26 08:20:44;;;;;;;22.85;21.25;;;;;;;27.37;100.00;101610.88;5025856;28;20061;-73
2023/09/26 08:23:11;;;;;;;24.58;22.98;;;;;;;27.51;100.00;101605.47;5028276;28;20053;-73
2023/09/26 08:25:38;;;;;;;23.48;21.98;;;;;;;27.27;100.00;101602.06;5029056;28;20103;-73
2023/09/26 08:28:06;;;;;;;25.20;23.40;;;;;;;27.50;100.00;101598.38;5028480;28;20053;-72
2023/09/26 08:30:34;;;;;;;24.05;22.55;;;;;;;28.26;100.00;101606.28;5028577;28;20212;-72
2023/09/26 08:33:02;;;;;;;23.25;21.65;;;;;;;28.48;100.00;101597.41;5028350;28;20456;-73
2023/09/26 08:35:31;;;;;;;24.35;22.75;;;;;;;28.73;100.00;101596.06;5027285;28;20521;-73
2023/09/26 08:37:58;;;;;;;24.92;23.23;;;;;;;27.91;100.00;101596.91;5028872;28;20049;-73
2023/09/26 08:40:25;;;;;;;23.48;21.92;;;;;;;27.42;100.00;101596.34;5030382;28;20462;-73
2023/09/26 08:42:58;;;;;;;22.83;21.33;;;;;;;27.75;100.00;101602.59;5033176;28;20044;-73
2023/09/26 08:45:25;;;;;;;;;;;;;;;28.31;100.00;101601.53;5034248;28;20438;-73
2023/09/26 08:47:54;;;;;;;21.52;19.83;;;;;;;28.01;100.00;101602.94;5027635;28;19925;-73
2023/09/26 08:50:23;;;;;;;23.27;21.55;;;;;;;27.69;100.00;101592.88;5030753;28;20052;-73
2023/09/26 08:52:51;;;;;;;21.70;20.10;;;;;;;28.60;100.00;101596.91;5028270;28;20053;-73
2023/09/26 08:55:19;;;;;;;22.25;20.65;;;;;;;28.42;100.00;101596.72;5028060;28;20127;-73
2023/09/26 08:57:47;;;;;;;22.40;20.70;;;;;;;28.58;100.00;101593.66;5027925;28;20049;-73
2023/09/26 09:00:17;;;;;;;21.50;20.00;;;;;;;28.75;100.00;101596.56;5028254;28;20049;-74
2023/09/26 09:02:44;;;;;;;20.75;19.25;;;;;;;28.70;100.00;101592.00;5022573;28;20054;-73
2023/09/26 09:05:11;;;;;;;22.85;20.80;;;;;;;28.60;100.00;101586.78;5028109;28;20057;-74
2023/09/26 09:07:41;;;;;;;19.23;17.73;;;;;;;28.65;100.00;101594.84;5021172;28;20672;-73
2023/09/26 09:10:10;;;;;;;22.85;21.00;;;;;;;28.47;100.00;101591.16;5033022;28;20499;-72
2023/09/26 09:12:40;;;;;;;21.02;19.50;;;;;;;28.80;100.00;101592.88;5031054;28;20048;-72
2023/09/26 09:15:24;;;;;;;21.45;19.85;;;;;;;28.44;100.00;101580.84;5025143;28;20136;-73
2023/09/26 09:17:53;;;;;;;20.83;19.23;;;;;;;27.72;100.00;101592.28;5023162;28;20053;-73
2023/09/26 09:20:31;;;;;;;20.20;18.60;;;;;;;28.62;100.00;101591.91;5018600;28;20412;-73
2023/09/26 09:23:04;;;;;;;22.23;20.63;;;;;;;29.31;100.00;101587.03;5022914;28;20045;-73
2023/09/26 09:25:33;;;;;;;22.02;20.52;;;;;;;29.72;100.00;101594.25;5051692;28;20450;-73
2023/09/26 09:27:59;;;;;;;23.08;21.58;;;;;;;28.78;100.00;101579.53;5047296;28;20489;-73
2023/09/26 09:30:28;;;;;;;21.88;20.38;;;;;;;29.07;100.00;101586.56;5055800;28;20056;-73
2023/09/26 09:32:55;;;;;;;22.48;20.98;;;;;;;28.67;100.00;101592.63;5055130;28;20051;-73
2023/09/26 09:35:23;;;;;;;23.08;21.58;;;;;;;29.48;100.00;101582.81;5049095;28;20053;-73
2023/09/26 09:37:50;;;;;;;23.92;22.33;;;;;;;29.31;100.00;101573.38;5049777;28;20588;-73
2023/09/26 09:40:23;;;;;;;23.63;22.02;;;;;;;28.23;100.00;101585.06;5038380;28;20482;-81
2023/09/26 09:42:51;;;;;;;;;;;;;;;29.96;100.00;101577.44;5044376;28;20136;-74
2023/09/26 09:45:18;;;;;;;22.02;20.42;;;;;;;29.58;100.00;101575.13;5049972;28;19920;-73
2023/09/26 09:47:47;;;;;;;23.23;21.63;;;;;;;29.95;100.00;101569.53;5055672;28;20049;-73
2023/09/26 09:50:15;;;;;;;24.35;22.75;;;;;;;30.97;97.14;101567.31;5049591;28;20077;-73
2023/09/26 09:52:44;;;;;;;27.00;25.05;;;;;;;31.41;88.94;101572.78;5046856;28;20068;-73
2023/09/26 09:55:16;;;;;;;23.20;21.60;;;;;;;29.87;98.78;101568.41;5050105;28;20045;-73
2023/09/26 09:57:46;;;;;;;;;;;;;;;28.96;100.00;101558.63;5056490;28;20083;-73
2023/09/26 10:00:14;;;;;;;23.70;22.23;;;;;;;30.87;95.82;101558.63;5043024;28;19972;-73
2023/09/26 10:02:41;;;;;;;25.58;23.98;;;;;;;30.31;93.86;101570.16;5045860;28;20256;-73
2023/09/26 10:05:12;;;;;;;25.10;23.50;;;;;;;29.52;100.00;101567.38;5050261;28;20049;-73
2023/09/26 10:07:40;;;;;;;28.10;26.15;;;;;;;29.50;100.00;101558.66;5039004;28;20498;-73
2023/09/26 10:10:10;;;;;;;27.60;25.73;;;;;;;30.15;96.45;101568.97;5049200;28;20052;-73
2023/09/26 10:12:38;;;;;;;24.13;22.63;;;;;;;29.90;93.59;101557.59;5053630;28;20423;-73
2023/09/26 10:15:11;;;;;;;26.42;24.63;;;;;;;30.36;93.63;101555.50;5052061;28;20046;-73
2023/09/26 10:17:40;;;;;;;25.70;23.90;;;;;;;29.87;96.10;101552.75;5044442;28;20048;-72
2023/09/26 10:20:11;;;;;;;26.95;24.75;;;;;;;31.16;81.14;101536.00;5055572;28;20092;-73
2023/09/26 10:22:41;;;;;;;25.90;24.10;;;;;;;30.39;90.44;101546.66;5054605;28;20048;-73
2023/09/26 10:25:12;;;;;;;24.20;22.40;;;;;;;30.31;88.58;101539.22;5055248;28;20063;-72
2023/09/26 10:27:45;;;;;;;26.42;24.65;;;;;;;28.96;100.00;101542.22;5057137;28;20615;-73
2023/09/26 10:30:14;;;;;;;24.00;22.40;;;;;;;30.25;91.16;101533.06;5051049;28;20048;-72
2023/09/26 10:32:42;;;;;;;23.88;22.27;;;;;;;29.45;99.54;101533.06;5060134;28;20049;-73
2023/09/26 10:35:28;;;;;;;24.52;22.58;;;;;;;32.29;77.96;101528.13;5060734;28;20055;-73
2023/09/26 10:38:02;;;;;;;23.48;21.98;;;;;;;31.55;70.43;101523.97;5062144;28;20100;-73
2023/09/26 10:40:29;;;;;;;22.42;21.00;;;;;;;30.34;85.33;101536.63;5059431;28;20053;-73
2023/09/26 10:42:56;;;;;;;24.05;22.55;;;;;;;31.60;71.55;101515.56;5058231;28;20048;-73
2023/09/26 10:45:24;;;;;;;23.65;22.05;;;;;;;29.82;90.66;101527.47;5056389;28;20057;-73
2023/09/26 10:47:51;;;;;;;23.63;22.02;;;;;;;30.26;85.08;101525.66;5059121;28;20131;-73
2023/09/26 10:50:20;;;;;;;23.83;22.13;;;;;;;31.22;75.62;101516.28;5054289;28;20100;-73
2023/09/26 10:52:52;;;;;;;25.55;23.55;;;;;;;32.45;62.69;101511.06;5057849;28;20136;-73
2023/09/26 10:55:21;;;;;;;25.58;23.20;;;;;;;30.94;73.63;101515.06;5059713;28;20055;-72
2023/09/26 10:57:50;;;;;;;36.28;22.92;;;;;;;31.28;71.49;101519.66;5057405;28;20099;-72
2023/09/26 11:00:18;;;;;;;25.25;23.42;;;;;;;32.03;63.78;101514.56;5059783;28;20041;-73
2023/09/26 11:02:48;;;;;;;22.52;21.13;;;;;;;30.74;72.51;101519.25;5056815;28;20383;-73
2023/09/26 11:05:18;;;;;;;22.35;20.75;;;;;;;32.08;57.61;101505.31;5056820;28;20045;-73
2023/09/26 11:07:46;;;;;;;21.85;20.40;;;;;;;31.86;56.91;101507.22;5054614;28;20052;-74